sensor_id;sensor_type;location;lat;lon;timestamp;temperature;humidity
60353;DHT22;46196;52.970;6.954;2024-01-30T00:01:42;5.60;99.90
60353;DHT22;46196;52.970;6.954;2024-01-30T00:04:08;5.60;99.90
60353;DHT22;46196;52.970;6.954;2024-01-30T00:06:33;5.60;99.90
60353;DHT22;46196;52.970;6.954;2024-01-30T00:08:59;5.60;99.90
60353;DHT22;46196;52.970;6.954;2024-01-30T00:11:25;5.60;99.90
60353;DHT22;46196;52.970;6.954;2024-01-30T00:13:51;5.60;99.90
60353;DHT22;46196;52.970;6.954;2024-01-30T00:16:24;5.60;99.90
60353;DHT22;46196;52.970;6.954;2024-01-30T00:18:53;5.60;99.90
60353;DHT22;46196;52.970;6.954;2024-01-30T00:21:20;5.90;99.90
60353;DHT22;46196;52.970;6.954;2024-01-30T00:23:46;5.60;99.90
60353;DHT22;46196;52.970;6.954;2024-01-30T00:26:13;5.60;99.90
60353;DHT22;46196;52.970;6.954;2024-01-30T00:28:40;5.60;99.90
60353;DHT22;46196;52.970;6.954;2024-01-30T00:31:06;5.60;99.90
60353;DHT22;46196;52.970;6.954;2024-01-30T00:33:32;5.50;99.90
60353;DHT22;46196;52.970;6.954;2024-01-30T00:35:57;5.50;99.90
60353;DHT22;46196;52.970;6.954;2024-01-30T00:38:23;5.50;99.90
60353;DHT22;46196;52.970;6.954;2024-01-30T00:40:49;5.50;99.90
60353;DHT22;46196;52.970;6.954;2024-01-30T00:43:15;5.50;99.90
60353;DHT22;46196;52.970;6.954;2024-01-30T00:45:41;5.50;99.90
60353;DHT22;46196;52.970;6.954;2024-01-30T00:48:07;5.50;99.90
60353;DHT22;46196;52.970;6.954;2024-01-30T00:50:32;5.50;99.90
60353;DHT22;46196;52.970;6.954;2024-01-30T00:52:58;5.50;99.90
60353;DHT22;46196;52.970;6.954;2024-01-30T00:55:24;5.50;99.90
60353;DHT22;46196;52.970;6.954;2024-01-30T00:57:49;5.50;99.90
60353;DHT22;46196;52.970;6.954;2024-01-30T01:00:15;5.60;99.90
60353;DHT22;46196;52.970;6.954;2024-01-30T01:02:44;5.60;99.90
60353;DHT22;46196;52.970;6.954;2024-01-30T01:05:10;5.60;99.90
60353;DHT22;46196;52.970;6.954;2024-01-30T01:07:36;5.60;99.90
60353;DHT22;46196;52.970;6.954;2024-01-30T01:10:02;6.20;99.90
60353;DHT22;46196;52.970;6.954;2024-01-30T01:12:29;5.60;99.90
60353;DHT22;46196;52.970;6.954;2024-01-30T01:14:54;5.60;99.90
60353;DHT22;46196;52.970;6.954;2024-01-30T01:17:20;5.60;99.90
60353;DHT22;46196;52.970;6.954;2024-01-30T01:19:46;5.60;99.90
60353;DHT22;46196;52.970;6.954;2024-01-30T01:22:12;5.60;99.90
60353;DHT22;46196;52.970;6.954;2024-01-30T01:24:38;5.60;99.90
60353;DHT22;46196;52.970;6.954;2024-01-30T01:27:05;5.60;99.90
60353;DHT22;46196;52.970;6.954;2024-01-30T01:29:31;5.60;99.90
60353;DHT22;46196;52.970;6.954;2024-01-30T01:31:58;5.60;99.90
60353;DHT22;46196;52.970;6.954;2024-01-30T01:34:23;5.60;99.90
60353;DHT22;46196;52.970;6.954;2024-01-30T01:36:49;5.60;99.90
60353;DHT22;46196;52.970;6.954;2024-01-30T01:39:15;5.60;99.90
60353;DHT22;46196;52.970;6.954;2024-01-30T01:41:41;5.60;99.90
60353;DHT22;46196;52.970;6.954;2024-01-30T01:44:08;5.60;99.90
60353;DHT22;46196;52.970;6.954;2024-01-30T01:46:34;5.60;99.90
60353;DHT22;46196;52.970;6.954;2024-01-30T01:49:02;5.60;99.90
60353;DHT22;46196;52.970;6.954;2024-01-30T01:51:29;5.50;99.90
60353;DHT22;46196;52.970;6.954;2024-01-30T01:53:55;5.50;99.90
60353;DHT22;46196;52.970;6.954;2024-01-30T01:56:23;5.50;99.90
60353;DHT22;46196;52.970;6.954;2024-01-30T01:58:50;5.50;99.90
60353;DHT22;46196;52.970;6.954;2024-01-30T02:01:19;5.50;99.90
60353;DHT22;46196;52.970;6.954;2024-01-30T02:03:46;5.50;99.90
60353;DHT22;46196;52.970;6.954;2024-01-30T02:06:15;5.50;99.90
60353;DHT22;46196;52.970;6.954;2024-01-30T02:08:41;5.40;99.90
60353;DHT22;46196;52.970;6.954;2024-01-30T02:11:08;5.40;99.90
60353;DHT22;46196;52.970;6.954;2024-01-30T02:13:36;5.40;99.90
60353;DHT22;46196;52.970;6.954;2024-01-30T02:16:01;5.40;99.90
60353;DHT22;46196;52.970;6.954;2024-01-30T02:18:27;5.40;99.90
60353;DHT22;46196;52.970;6.954;2024-01-30T02:20:56;5.40;99.90
60353;DHT22;46196;52.970;6.954;2024-01-30T02:23:24;5.40;99.90
60353;DHT22;46196;52.970;6.954;2024-01-30T02:25:52;5.40;99.90
60353;DHT22;46196;52.970;6.954;2024-01-30T02:28:19;5.40;99.90
60353;DHT22;46196;52.970;6.954;2024-01-30T02:30:45;5.30;99.90
60353;DHT22;46196;52.970;6.954;2024-01-30T02:33:12;5.90;99.90
60353;DHT22;46196;52.970;6.954;2024-01-30T02:35:38;5.30;99.90
60353;DHT22;46196;52.970;6.954;2024-01-30T02:38:04;5.40;99.90
60353;DHT22;46196;52.970;6.954;2024-01-30T02:40:30;5.40;99.90
60353;DHT22;46196;52.970;6.954;2024-01-30T02:42:57;5.40;99.90
60353;DHT22;46196;52.970;6.954;2024-01-30T02:45:23;5.40;99.90
60353;DHT22;46196;52.970;6.954;2024-01-30T02:47:49;5.40;99.90
60353;DHT22;46196;52.970;6.954;2024-01-30T02:50:14;5.40;99.90
60353;DHT22;46196;52.970;6.954;2024-01-30T02:52:41;5.40;99.90
60353;DHT22;46196;52.970;6.954;2024-01-30T02:55:09;5.40;99.90
60353;DHT22;46196;52.970;6.954;2024-01-30T02:57:35;5.40;99.90
60353;DHT22;46196;52.970;6.954;2024-01-30T03:00:01;5.40;99.90
60353;DHT22;46196;52.970;6.954;2024-01-30T03:02:26;5.40;99.90
60353;DHT22;46196;52.970;6.954;2024-01-30T03:04:52;5.40;99.90
60353;DHT22;46196;52.970;6.954;2024-01-30T03:07:18;5.40;99.90
60353;DHT22;46196;52.970;6.954;2024-01-30T03:09:44;5.30;99.90
60353;DHT22;46196;52.970;6.954;2024-01-30T03:12:09;5.30;99.90
60353;DHT22;46196;52.970;6.954;2024-01-30T03:14:36;5.50;99.90
60353;DHT22;46196;52.970;6.954;2024-01-30T03:17:02;5.30;99.90
60353;DHT22;46196;52.970;6.954;2024-01-30T03:19:28;5.30;99.90
60353;DHT22;46196;52.970;6.954;2024-01-30T03:21:53;5.30;99.90
60353;DHT22;46196;52.970;6.954;2024-01-30T03:24:19;5.20;99.90
60353;DHT22;46196;52.970;6.954;2024-01-30T03:26:45;5.20;99.90
60353;DHT22;46196;52.970;6.954;2024-01-30T03:29:10;5.20;99.90
60353;DHT22;46196;52.970;6.954;2024-01-30T03:31:36;5.20;99.90
60353;DHT22;46196;52.970;6.954;2024-01-30T03:34:02;5.20;99.90
60353;DHT22;46196;52.970;6.954;2024-01-30T03:36:27;5.20;99.90
60353;DHT22;46196;52.970;6.954;2024-01-30T03:38:53;5.20;99.90
60353;DHT22;46196;52.970;6.954;2024-01-30T03:41:19;5.20;99.90
60353;DHT22;46196;52.970;6.954;2024-01-30T03:43:47;5.20;99.90
60353;DHT22;46196;52.970;6.954;2024-01-30T03:46:13;5.30;99.90
60353;DHT22;46196;52.970;6.954;2024-01-30T03:48:38;5.30;99.90
60353;DHT22;46196;52.970;6.954;2024-01-30T03:51:05;5.30;99.90
60353;DHT22;46196;52.970;6.954;2024-01-30T03:53:30;5.30;99.90
60353;DHT22;46196;52.970;6.954;2024-01-30T03:55:56;5.40;99.90
60353;DHT22;46196;52.970;6.954;2024-01-30T03:58:22;5.50;99.90
60353;DHT22;46196;52.970;6.954;2024-01-30T04:00:48;5.50;99.90
60353;DHT22;46196;52.970;6.954;2024-01-30T04:03:17;5.50;99.90
60353;DHT22;46196;52.970;6.954;2024-01-30T04:05:43;5.60;99.90
60353;DHT22;46196;52.970;6.954;2024-01-30T04:08:09;5.60;99.90
60353;DHT22;46196;52.970;6.954;2024-01-30T04:10:35;5.60;99.90
60353;DHT22;46196;52.970;6.954;2024-01-30T04:13:01;5.60;99.90
60353;DHT22;46196;52.970;6.954;2024-01-30T04:15:27;5.70;99.90
60353;DHT22;46196;52.970;6.954;2024-01-30T04:17:53;5.60;99.90
60353;DHT22;46196;52.970;6.954;2024-01-30T04:20:19;5.70;99.90
60353;DHT22;46196;52.970;6.954;2024-01-30T04:22:45;5.70;99.90
60353;DHT22;46196;52.970;6.954;2024-01-30T04:25:11;5.70;99.90
60353;DHT22;46196;52.970;6.954;2024-01-30T04:27:38;5.80;99.90
60353;DHT22;46196;52.970;6.954;2024-01-30T04:30:04;5.80;99.90
60353;DHT22;46196;52.970;6.954;2024-01-30T04:32:30;5.80;99.90
60353;DHT22;46196;52.970;6.954;2024-01-30T04:34:56;5.80;99.90
60353;DHT22;46196;52.970;6.954;2024-01-30T04:37:21;5.80;99.90
60353;DHT22;46196;52.970;6.954;2024-01-30T04:39:47;5.80;99.90
60353;DHT22;46196;52.970;6.954;2024-01-30T04:42:13;5.90;99.90
60353;DHT22;46196;52.970;6.954;2024-01-30T04:44:39;5.90;99.90
60353;DHT22;46196;52.970;6.954;2024-01-30T04:47:04;6.00;99.90
60353;DHT22;46196;52.970;6.954;2024-01-30T04:49:31;6.00;99.90
60353;DHT22;46196;52.970;6.954;2024-01-30T04:51:58;6.00;99.90
60353;DHT22;46196;52.970;6.954;2024-01-30T04:54:24;6.00;99.90
60353;DHT22;46196;52.970;6.954;2024-01-30T04:56:49;6.10;99.90
60353;DHT22;46196;52.970;6.954;2024-01-30T04:59:15;6.10;99.90
60353;DHT22;46196;52.970;6.954;2024-01-30T05:01:41;6.10;99.90
60353;DHT22;46196;52.970;6.954;2024-01-30T05:04:10;6.10;99.90
60353;DHT22;46196;52.970;6.954;2024-01-30T05:06:36;6.10;99.90
60353;DHT22;46196;52.970;6.954;2024-01-30T05:09:02;6.20;99.90
60353;DHT22;46196;52.970;6.954;2024-01-30T05:11:31;6.10;99.90
60353;DHT22;46196;52.970;6.954;2024-01-30T05:13:57;6.10;99.90
60353;DHT22;46196;52.970;6.954;2024-01-30T05:16:22;6.10;99.90
60353;DHT22;46196;52.970;6.954;2024-01-30T05:18:48;6.20;99.90
60353;DHT22;46196;52.970;6.954;2024-01-30T05:21:14;6.20;99.90
60353;DHT22;46196;52.970;6.954;2024-01-30T05:23:40;6.20;99.90
60353;DHT22;46196;52.970;6.954;2024-01-30T05:26:07;6.20;99.90
60353;DHT22;46196;52.970;6.954;2024-01-30T05:28:33;6.30;99.90
60353;DHT22;46196;52.970;6.954;2024-01-30T05:30:59;6.30;99.90
60353;DHT22;46196;52.970;6.954;2024-01-30T05:33:24;6.40;99.90
60353;DHT22;46196;52.970;6.954;2024-01-30T05:35:50;6.40;99.90
60353;DHT22;46196;52.970;6.954;2024-01-30T05:38:19;6.40;99.90
60353;DHT22;46196;52.970;6.954;2024-01-30T05:40:45;6.40;99.90
60353;DHT22;46196;52.970;6.954;2024-01-30T05:43:11;6.40;99.90
60353;DHT22;46196;52.970;6.954;2024-01-30T05:45:38;6.40;99.90
60353;DHT22;46196;52.970;6.954;2024-01-30T05:48:04;6.40;99.90
60353;DHT22;46196;52.970;6.954;2024-01-30T05:50:30;6.30;99.90
60353;DHT22;46196;52.970;6.954;2024-01-30T05:52:56;6.30;99.90
60353;DHT22;46196;52.970;6.954;2024-01-30T05:55:21;6.60;99.90
60353;DHT22;46196;52.970;6.954;2024-01-30T05:57:47;6.40;99.90
60353;DHT22;46196;52.970;6.954;2024-01-30T06:00:13;6.40;99.90
60353;DHT22;46196;52.970;6.954;2024-01-30T06:02:39;6.50;99.90
60353;DHT22;46196;52.970;6.954;2024-01-30T06:05:05;6.60;99.90
60353;DHT22;46196;52.970;6.954;2024-01-30T06:07:31;6.50;99.90
60353;DHT22;46196;52.970;6.954;2024-01-30T06:09:56;6.50;99.90
60353;DHT22;46196;52.970;6.954;2024-01-30T06:12:22;6.50;99.90
60353;DHT22;46196;52.970;6.954;2024-01-30T06:14:47;6.60;99.90
60353;DHT22;46196;52.970;6.954;2024-01-30T06:17:13;6.70;99.90
60353;DHT22;46196;52.970;6.954;2024-01-30T06:19:39;6.60;99.90
60353;DHT22;46196;52.970;6.954;2024-01-30T06:22:05;6.60;99.90
60353;DHT22;46196;52.970;6.954;2024-01-30T06:24:30;6.70;99.90
60353;DHT22;46196;52.970;6.954;2024-01-30T06:26:56;6.70;99.90
60353;DHT22;46196;52.970;6.954;2024-01-30T06:29:22;6.70;99.90
60353;DHT22;46196;52.970;6.954;2024-01-30T06:31:50;6.70;99.90
60353;DHT22;46196;52.970;6.954;2024-01-30T06:34:15;6.70;99.90
60353;DHT22;46196;52.970;6.954;2024-01-30T06:36:41;6.70;99.90
60353;DHT22;46196;52.970;6.954;2024-01-30T06:39:07;6.70;99.90
60353;DHT22;46196;52.970;6.954;2024-01-30T06:41:33;6.70;99.90
60353;DHT22;46196;52.970;6.954;2024-01-30T06:43:59;6.80;99.90
60353;DHT22;46196;52.970;6.954;2024-01-30T06:46:25;6.70;99.90
60353;DHT22;46196;52.970;6.954;2024-01-30T06:48:51;6.80;99.90
60353;DHT22;46196;52.970;6.954;2024-01-30T06:51:17;6.80;99.90
60353;DHT22;46196;52.970;6.954;2024-01-30T06:53:43;6.80;99.90
60353;DHT22;46196;52.970;6.954;2024-01-30T06:56:09;6.90;99.90
60353;DHT22;46196;52.970;6.954;2024-01-30T06:58:34;6.90;99.90
60353;DHT22;46196;52.970;6.954;2024-01-30T07:01:00;7.00;99.90
60353;DHT22;46196;52.970;6.954;2024-01-30T07:03:26;7.00;99.90
60353;DHT22;46196;52.970;6.954;2024-01-30T07:05:51;7.10;99.90
60353;DHT22;46196;52.970;6.954;2024-01-30T07:08:17;7.10;99.90
60353;DHT22;46196;52.970;6.954;2024-01-30T07:10:44;7.20;99.90
60353;DHT22;46196;52.970;6.954;2024-01-30T07:13:10;7.20;99.90
60353;DHT22;46196;52.970;6.954;2024-01-30T07:15:36;7.30;99.90
60353;DHT22;46196;52.970;6.954;2024-01-30T07:18:02;7.40;99.90
60353;DHT22;46196;52.970;6.954;2024-01-30T07:20:28;7.40;99.90
60353;DHT22;46196;52.970;6.954;2024-01-30T07:22:56;7.50;99.90
60353;DHT22;46196;52.970;6.954;2024-01-30T07:25:21;7.60;99.90
60353;DHT22;46196;52.970;6.954;2024-01-30T07:27:52;7.60;99.90
60353;DHT22;46196;52.970;6.954;2024-01-30T07:30:18;7.70;99.90
60353;DHT22;46196;52.970;6.954;2024-01-30T07:32:44;7.70;99.90
60353;DHT22;46196;52.970;6.954;2024-01-30T07:35:09;7.70;99.90
60353;DHT22;46196;52.970;6.954;2024-01-30T07:37:36;7.70;99.90
60353;DHT22;46196;52.970;6.954;2024-01-30T07:40:03;7.70;99.90
60353;DHT22;46196;52.970;6.954;2024-01-30T07:42:29;7.80;99.90
60353;DHT22;46196;52.970;6.954;2024-01-30T07:44:54;7.80;99.90
60353;DHT22;46196;52.970;6.954;2024-01-30T07:47:20;7.80;99.90
60353;DHT22;46196;52.970;6.954;2024-01-30T07:49:45;7.80;99.90
60353;DHT22;46196;52.970;6.954;2024-01-30T07:52:11;7.80;99.90
60353;DHT22;46196;52.970;6.954;2024-01-30T07:54:49;7.80;99.90
60353;DHT22;46196;52.970;6.954;2024-01-30T07:57:15;7.80;99.90
60353;DHT22;46196;52.970;6.954;2024-01-30T07:59:44;7.80;99.90
60353;DHT22;46196;52.970;6.954;2024-01-30T08:02:11;8.00;99.90
60353;DHT22;46196;52.970;6.954;2024-01-30T08:04:37;7.80;99.90
60353;DHT22;46196;52.970;6.954;2024-01-30T08:07:03;7.80;99.90
60353;DHT22;46196;52.970;6.954;2024-01-30T08:09:28;7.80;99.90
60353;DHT22;46196;52.970;6.954;2024-01-30T08:11:54;7.80;99.90
60353;DHT22;46196;52.970;6.954;2024-01-30T08:14:20;7.80;99.90
60353;DHT22;46196;52.970;6.954;2024-01-30T08:16:45;7.90;99.90
60353;DHT22;46196;52.970;6.954;2024-01-30T08:19:11;7.90;99.90
60353;DHT22;46196;52.970;6.954;2024-01-30T08:21:37;7.90;99.90
60353;DHT22;46196;52.970;6.954;2024-01-30T08:24:06;8.00;99.90
60353;DHT22;46196;52.970;6.954;2024-01-30T08:26:32;8.00;99.90
60353;DHT22;46196;52.970;6.954;2024-01-30T08:28:58;8.10;99.90
60353;DHT22;46196;52.970;6.954;2024-01-30T08:31:24;8.10;99.90
60353;DHT22;46196;52.970;6.954;2024-01-30T08:33:50;8.20;99.90
60353;DHT22;46196;52.970;6.954;2024-01-30T08:36:16;8.20;99.90
60353;DHT22;46196;52.970;6.954;2024-01-30T08:38:42;8.30;99.90
60353;DHT22;46196;52.970;6.954;2024-01-30T08:41:08;8.40;99.90
60353;DHT22;46196;52.970;6.954;2024-01-30T08:43:34;8.40;99.90
60353;DHT22;46196;52.970;6.954;2024-01-30T08:46:00;8.40;99.90
60353;DHT22;46196;52.970;6.954;2024-01-30T08:48:26;8.50;99.90
60353;DHT22;46196;52.970;6.954;2024-01-30T08:50:52;8.50;99.90
60353;DHT22;46196;52.970;6.954;2024-01-30T08:53:18;8.50;99.90
60353;DHT22;46196;52.970;6.954;2024-01-30T08:55:44;8.70;99.90
60353;DHT22;46196;52.970;6.954;2024-01-30T08:58:10;8.60;99.90
60353;DHT22;46196;52.970;6.954;2024-01-30T09:00:36;8.70;99.90
60353;DHT22;46196;52.970;6.954;2024-01-30T09:03:01;8.70;99.90
60353;DHT22;46196;52.970;6.954;2024-01-30T09:05:27;8.70;99.90
60353;DHT22;46196;52.970;6.954;2024-01-30T09:07:52;8.80;99.90
60353;DHT22;46196;52.970;6.954;2024-01-30T09:10:19;8.80;99.90
60353;DHT22;46196;52.970;6.954;2024-01-30T09:12:45;8.90;99.90
60353;DHT22;46196;52.970;6.954;2024-01-30T09:15:10;9.00;99.90
60353;DHT22;46196;52.970;6.954;2024-01-30T09:17:36;9.00;99.90
60353;DHT22;46196;52.970;6.954;2024-01-30T09:20:02;9.20;99.90
60353;DHT22;46196;52.970;6.954;2024-01-30T09:22:28;9.20;99.90
60353;DHT22;46196;52.970;6.954;2024-01-30T09:24:53;9.20;99.90
60353;DHT22;46196;52.970;6.954;2024-01-30T09:27:19;9.30;99.90
60353;DHT22;46196;52.970;6.954;2024-01-30T09:29:45;9.30;99.90
60353;DHT22;46196;52.970;6.954;2024-01-30T09:32:11;9.40;99.90
60353;DHT22;46196;52.970;6.954;2024-01-30T09:34:36;9.40;99.90
60353;DHT22;46196;52.970;6.954;2024-01-30T09:37:02;9.40;99.90
60353;DHT22;46196;52.970;6.954;2024-01-30T09:39:28;9.40;99.90
60353;DHT22;46196;52.970;6.954;2024-01-30T09:42:18;9.40;99.90
60353;DHT22;46196;52.970;6.954;2024-01-30T09:44:47;9.50;99.90
60353;DHT22;46196;52.970;6.954;2024-01-30T09:47:16;9.50;99.90
60353;DHT22;46196;52.970;6.954;2024-01-30T09:49:43;9.60;99.90
60353;DHT22;46196;52.970;6.954;2024-01-30T09:52:09;9.60;99.90
60353;DHT22;46196;52.970;6.954;2024-01-30T09:54:36;9.60;99.90
60353;DHT22;46196;52.970;6.954;2024-01-30T09:57:03;9.60;99.90
60353;DHT22;46196;52.970;6.954;2024-01-30T09:59:29;9.70;99.90
60353;DHT22;46196;52.970;6.954;2024-01-30T10:01:55;9.70;99.90
60353;DHT22;46196;52.970;6.954;2024-01-30T10:04:22;9.70;99.90
60353;DHT22;46196;52.970;6.954;2024-01-30T10:06:47;9.70;99.90
60353;DHT22;46196;52.970;6.954;2024-01-30T10:09:14;9.70;99.90
60353;DHT22;46196;52.970;6.954;2024-01-30T10:11:39;9.70;99.90
60353;DHT22;46196;52.970;6.954;2024-01-30T10:14:05;9.70;99.90
60353;DHT22;46196;52.970;6.954;2024-01-30T10:16:31;9.70;99.90
60353;DHT22;46196;52.970;6.954;2024-01-30T10:18:56;9.70;99.90
60353;DHT22;46196;52.970;6.954;2024-01-30T10:21:22;9.80;99.90
60353;DHT22;46196;52.970;6.954;2024-01-30T10:23:49;9.80;99.90
60353;DHT22;46196;52.970;6.954;2024-01-30T10:26:16;9.90;99.90
60353;DHT22;46196;52.970;6.954;2024-01-30T10:28:43;9.90;99.90
60353;DHT22;46196;52.970;6.954;2024-01-30T10:43:32;10.00;99.90
60353;DHT22;46196;52.970;6.954;2024-01-30T10:48:43;10.40;99.90
60353;DHT22;46196;52.970;6.954;2024-01-30T10:51:14;10.50;99.90
60353;DHT22;46196;52.970;6.954;2024-01-30T10:53:41;10.60;99.90
60353;DHT22;46196;52.970;6.954;2024-01-30T10:56:10;10.60;99.90
60353;DHT22;46196;52.970;6.954;2024-01-30T10:58:36;10.60;99.90
60353;DHT22;46196;52.970;6.954;2024-01-30T11:01:06;10.70;99.90
60353;DHT22;46196;52.970;6.954;2024-01-30T11:03:33;10.60;99.90
60353;DHT22;46196;52.970;6.954;2024-01-30T11:06:02;10.70;99.90
60353;DHT22;46196;52.970;6.954;2024-01-30T11:08:31;10.70;99.90
60353;DHT22;46196;52.970;6.954;2024-01-30T11:10:58;10.70;99.90
60353;DHT22;46196;52.970;6.954;2024-01-30T11:13:30;10.70;99.90
60353;DHT22;46196;52.970;6.954;2024-01-30T11:16:03;10.70;99.90
60353;DHT22;46196;52.970;6.954;2024-01-30T11:18:31;10.70;99.90
60353;DHT22;46196;52.970;6.954;2024-01-30T11:20:58;10.70;99.90
60353;DHT22;46196;52.970;6.954;2024-01-30T11:23:25;10.70;99.90
60353;DHT22;46196;52.970;6.954;2024-01-30T11:25:53;10.70;99.90
60353;DHT22;46196;52.970;6.954;2024-01-30T11:28:18;10.70;99.90
60353;DHT22;46196;52.970;6.954;2024-01-30T11:30:46;10.70;99.90
60353;DHT22;46196;52.970;6.954;2024-01-30T11:33:14;10.70;99.90
60353;DHT22;46196;52.970;6.954;2024-01-30T11:35:44;10.70;99.90
60353;DHT22;46196;52.970;6.954;2024-01-30T11:38:14;10.70;99.90
60353;DHT22;46196;52.970;6.954;2024-01-30T11:40:40;10.80;99.90
60353;DHT22;46196;52.970;6.954;2024-01-30T11:43:08;10.90;99.90
60353;DHT22;46196;52.970;6.954;2024-01-30T11:45:35;10.90;99.90
60353;DHT22;46196;52.970;6.954;2024-01-30T11:48:02;10.80;99.90
60353;DHT22;46196;52.970;6.954;2024-01-30T11:50:32;10.90;99.90
60353;DHT22;46196;52.970;6.954;2024-01-30T11:55:25;10.90;99.90
60353;DHT22;46196;52.970;6.954;2024-01-30T11:57:55;10.90;99.90
60353;DHT22;46196;52.970;6.954;2024-01-30T12:00:20;11.00;99.90
60353;DHT22;46196;52.970;6.954;2024-01-30T12:02:54;10.90;99.90
60353;DHT22;46196;52.970;6.954;2024-01-30T12:05:24;11.00;99.90
60353;DHT22;46196;52.970;6.954;2024-01-30T12:07:50;11.00;99.90
60353;DHT22;46196;52.970;6.954;2024-01-30T12:10:16;11.00;99.90
60353;DHT22;46196;52.970;6.954;2024-01-30T12:12:48;11.00;99.90
60353;DHT22;46196;52.970;6.954;2024-01-30T12:15:15;11.00;99.90
60353;DHT22;46196;52.970;6.954;2024-01-30T12:17:41;10.90;99.90
60353;DHT22;46196;52.970;6.954;2024-01-30T12:20:14;10.90;99.90
60353;DHT22;46196;52.970;6.954;2024-01-30T12:22:42;10.90;99.90
60353;DHT22;46196;52.970;6.954;2024-01-30T12:25:12;11.10;99.90
60353;DHT22;46196;52.970;6.954;2024-01-30T12:27:39;11.10;99.90
60353;DHT22;46196;52.970;6.954;2024-01-30T12:30:09;11.10;99.90
60353;DHT22;46196;52.970;6.954;2024-01-30T12:32:36;11.20;99.90
60353;DHT22;46196;52.970;6.954;2024-01-30T12:35:02;11.30;99.90
60353;DHT22;46196;52.970;6.954;2024-01-30T15:57:26;11.40;99.90
60353;DHT22;46196;52.970;6.954;2024-01-30T15:59:52;9.30;99.90
60353;DHT22;46196;52.970;6.954;2024-01-30T16:02:19;9.30;99.90
60353;DHT22;46196;52.970;6.954;2024-01-30T16:04:46;9.20;99.90
60353;DHT22;46196;52.970;6.954;2024-01-30T16:07:12;9.40;99.90
60353;DHT22;46196;52.970;6.954;2024-01-30T16:09:37;9.30;99.90
60353;DHT22;46196;52.970;6.954;2024-01-30T16:12:03;9.20;99.90
60353;DHT22;46196;52.970;6.954;2024-01-30T16:14:29;9.20;99.90
60353;DHT22;46196;52.970;6.954;2024-01-30T16:16:54;9.20;99.90
60353;DHT22;46196;52.970;6.954;2024-01-30T16:19:20;9.10;99.90
60353;DHT22;46196;52.970;6.954;2024-01-30T16:21:46;9.20;99.90
60353;DHT22;46196;52.970;6.954;2024-01-30T16:24:11;9.10;99.90
60353;DHT22;46196;52.970;6.954;2024-01-30T16:26:37;9.00;99.90
60353;DHT22;46196;52.970;6.954;2024-01-30T16:29:04;8.90;99.90
60353;DHT22;46196;52.970;6.954;2024-01-30T16:31:30;8.90;99.90
60353;DHT22;46196;52.970;6.954;2024-01-30T16:33:56;8.80;99.90
60353;DHT22;46196;52.970;6.954;2024-01-30T16:36:22;8.80;99.90
60353;DHT22;46196;52.970;6.954;2024-01-30T16:38:48;8.70;99.90
60353;DHT22;46196;52.970;6.954;2024-01-30T16:41:14;8.70;99.90
60353;DHT22;46196;52.970;6.954;2024-01-30T16:43:39;8.70;99.90
60353;DHT22;46196;52.970;6.954;2024-01-30T16:46:05;8.60;99.90
60353;DHT22;46196;52.970;6.954;2024-01-30T16:48:30;8.50;99.90
60353;DHT22;46196;52.970;6.954;2024-01-30T16:50:56;8.50;99.90
60353;DHT22;46196;52.970;6.954;2024-01-30T16:53:22;8.50;99.90
60353;DHT22;46196;52.970;6.954;2024-01-30T16:55:47;8.40;99.90
60353;DHT22;46196;52.970;6.954;2024-01-30T16:58:13;8.50;99.90
60353;DHT22;46196;52.970;6.954;2024-01-30T17:00:39;8.50;99.90
60353;DHT22;46196;52.970;6.954;2024-01-30T17:03:04;8.50;99.90
60353;DHT22;46196;52.970;6.954;2024-01-30T17:05:31;8.60;99.90
60353;DHT22;46196;52.970;6.954;2024-01-30T17:07:56;8.40;99.90
60353;DHT22;46196;52.970;6.954;2024-01-30T17:10:26;8.50;99.90
60353;DHT22;46196;52.970;6.954;2024-01-30T17:12:53;8.50;99.90
60353;DHT22;46196;52.970;6.954;2024-01-30T17:15:19;8.50;99.90
60353;DHT22;46196;52.970;6.954;2024-01-30T17:17:44;8.60;99.90
60353;DHT22;46196;52.970;6.954;2024-01-30T17:20:10;8.50;99.90
60353;DHT22;46196;52.970;6.954;2024-01-30T17:22:37;8.50;99.90
60353;DHT22;46196;52.970;6.954;2024-01-30T17:25:05;8.50;99.90
60353;DHT22;46196;52.970;6.954;2024-01-30T17:27:31;8.50;99.90
60353;DHT22;46196;52.970;6.954;2024-01-30T17:29:56;8.50;99.90
60353;DHT22;46196;52.970;6.954;2024-01-30T17:32:22;8.50;99.90
60353;DHT22;46196;52.970;6.954;2024-01-30T17:34:51;8.50;99.90
60353;DHT22;46196;52.970;6.954;2024-01-30T17:37:17;8.50;99.90
60353;DHT22;46196;52.970;6.954;2024-01-30T17:39:43;8.40;99.90
60353;DHT22;46196;52.970;6.954;2024-01-30T17:42:09;8.40;99.90
60353;DHT22;46196;52.970;6.954;2024-01-30T17:44:35;8.40;99.90
60353;DHT22;46196;52.970;6.954;2024-01-30T17:47:05;8.70;99.90
60353;DHT22;46196;52.970;6.954;2024-01-30T17:49:31;8.40;99.90
60353;DHT22;46196;52.970;6.954;2024-01-30T17:51:56;8.40;99.90
60353;DHT22;46196;52.970;6.954;2024-01-30T17:54:22;8.30;99.90
60353;DHT22;46196;52.970;6.954;2024-01-30T17:56:48;8.30;99.90
60353;DHT22;46196;52.970;6.954;2024-01-30T17:59:13;8.20;99.90
60353;DHT22;46196;52.970;6.954;2024-01-30T18:01:39;8.20;99.90
60353;DHT22;46196;52.970;6.954;2024-01-30T18:04:05;8.20;99.90
60353;DHT22;46196;52.970;6.954;2024-01-30T18:06:30;8.10;99.90
60353;DHT22;46196;52.970;6.954;2024-01-30T18:08:56;8.20;99.90
60353;DHT22;46196;52.970;6.954;2024-01-30T18:11:22;8.00;99.90
60353;DHT22;46196;52.970;6.954;2024-01-30T18:13:47;8.10;99.90
60353;DHT22;46196;52.970;6.954;2024-01-30T18:16:13;8.10;99.90
60353;DHT22;46196;52.970;6.954;2024-01-30T18:18:39;8.00;99.90
60353;DHT22;46196;52.970;6.954;2024-01-30T18:21:04;8.10;99.90
60353;DHT22;46196;52.970;6.954;2024-01-30T18:23:30;8.00;99.90
60353;DHT22;46196;52.970;6.954;2024-01-30T18:25:56;7.90;99.90
60353;DHT22;46196;52.970;6.954;2024-01-30T18:28:26;7.90;99.90
60353;DHT22;46196;52.970;6.954;2024-01-30T18:30:52;7.90;99.90
60353;DHT22;46196;52.970;6.954;2024-01-30T18:33:18;7.80;99.90
60353;DHT22;46196;52.970;6.954;2024-01-30T18:35:44;7.80;99.90
60353;DHT22;46196;52.970;6.954;2024-01-30T18:38:09;7.80;99.90
60353;DHT22;46196;52.970;6.954;2024-01-30T18:40:35;7.70;99.90
60353;DHT22;46196;52.970;6.954;2024-01-30T18:43:01;7.70;99.90
60353;DHT22;46196;52.970;6.954;2024-01-30T18:45:30;7.70;99.90
60353;DHT22;46196;52.970;6.954;2024-01-30T18:47:55;7.70;99.90
60353;DHT22;46196;52.970;6.954;2024-01-30T18:50:21;7.70;99.90
60353;DHT22;46196;52.970;6.954;2024-01-30T18:52:47;7.60;99.90
60353;DHT22;46196;52.970;6.954;2024-01-30T18:55:12;7.60;99.90
60353;DHT22;46196;52.970;6.954;2024-01-30T18:57:39;7.60;99.90
60353;DHT22;46196;52.970;6.954;2024-01-30T19:00:07;7.80;99.90
60353;DHT22;46196;52.970;6.954;2024-01-30T19:02:33;7.50;99.90
60353;DHT22;46196;52.970;6.954;2024-01-30T19:04:59;7.70;99.90
60353;DHT22;46196;52.970;6.954;2024-01-30T19:07:25;7.80;99.90
60353;DHT22;46196;52.970;6.954;2024-01-30T19:09:51;7.60;99.90
60353;DHT22;46196;52.970;6.954;2024-01-30T19:12:18;7.50;99.90
60353;DHT22;46196;52.970;6.954;2024-01-30T19:14:43;7.40;99.90
60353;DHT22;46196;52.970;6.954;2024-01-30T19:17:09;7.40;99.90